sensor_id;sensor_type;location;lat;lon;timestamp;P1;durP1;ratioP1;P2;durP2;ratioP2
15482;SDS011;7843;50.330;7.312;2023-02-26T00:01:16;2.97;;;1.63;;
15482;SDS011;7843;50.330;7.312;2023-02-26T00:03:47;1.23;;;0.93;;
15482;SDS011;7843;50.330;7.312;2023-02-26T00:06:15;6.07;;;1.20;;
15482;SDS011;7843;50.330;7.312;2023-02-26T00:08:42;4.38;;;1.20;;
15482;SDS011;7843;50.330;7.312;2023-02-26T00:11:09;3.25;;;1.20;;
15482;SDS011;7843;50.330;7.312;2023-02-26T00:13:38;2.45;;;0.85;;
15482;SDS011;7843;50.330;7.312;2023-02-26T00:18:51;3.58;;;1.30;;
15482;SDS011;7843;50.330;7.312;2023-02-26T00:21:19;6.03;;;1.50;;
15482;SDS011;7843;50.330;7.312;2023-02-26T00:23:47;2.78;;;1.50;;
15482;SDS011;7843;50.330;7.312;2023-02-26T00:26:14;2.95;;;1.27;;
15482;SDS011;7843;50.330;7.312;2023-02-26T00:28:41;4.50;;;1.33;;
15482;SDS011;7843;50.330;7.312;2023-02-26T00:31:09;5.40;;;1.23;;
15482;SDS011;7843;50.330;7.312;2023-02-26T00:33:37;5.47;;;1.50;;
15482;SDS011;7843;50.330;7.312;2023-02-26T00:36:51;2.22;;;1.05;;
15482;SDS011;7843;50.330;7.312;2023-02-26T00:39:14;6.00;;;1.50;;
15482;SDS011;7843;50.330;7.312;2023-02-26T00:41:46;5.28;;;1.70;;
15482;SDS011;7843;50.330;7.312;2023-02-26T00:44:13;2.00;;;1.30;;
15482;SDS011;7843;50.330;7.312;2023-02-26T00:46:48;2.80;;;1.10;;
15482;SDS011;7843;50.330;7.312;2023-02-26T00:52:12;3.70;;;1.33;;
15482;SDS011;7843;50.330;7.312;2023-02-26T00:54:45;6.40;;;1.85;;
15482;SDS011;7843;50.330;7.312;2023-02-26T00:57:11;3.22;;;1.00;;
15482;SDS011;7843;50.330;7.312;2023-02-26T00:59:38;3.30;;;1.55;;
15482;SDS011;7843;50.330;7.312;2023-02-26T01:02:05;4.07;;;1.60;;
15482;SDS011;7843;50.330;7.312;2023-02-26T01:04:31;5.80;;;1.88;;
15482;SDS011;7843;50.330;7.312;2023-02-26T01:06:58;4.15;;;1.80;;
15482;SDS011;7843;50.330;7.312;2023-02-26T01:09:26;7.90;;;1.70;;
15482;SDS011;7843;50.330;7.312;2023-02-26T01:11:56;1.90;;;1.10;;
15482;SDS011;7843;50.330;7.312;2023-02-26T01:14:26;2.05;;;1.20;;
15482;SDS011;7843;50.330;7.312;2023-02-26T01:19:50;3.22;;;1.20;;
15482;SDS011;7843;50.330;7.312;2023-02-26T01:22:29;4.85;;;1.45;;
15482;SDS011;7843;50.330;7.312;2023-02-26T01:25:12;2.87;;;1.30;;
15482;SDS011;7843;50.330;7.312;2023-02-26T01:27:43;4.63;;;1.77;;
15482;SDS011;7843;50.330;7.312;2023-02-26T01:30:10;3.67;;;1.25;;
15482;SDS011;7843;50.330;7.312;2023-02-26T01:38:21;4.50;;;1.67;;
15482;SDS011;7843;50.330;7.312;2023-02-26T01:49:15;5.05;;;1.38;;
15482;SDS011;7843;50.330;7.312;2023-02-26T01:51:53;4.50;;;1.60;;
15482;SDS011;7843;50.330;7.312;2023-02-26T01:54:22;2.92;;;1.35;;
15482;SDS011;7843;50.330;7.312;2023-02-26T01:57:10;5.70;;;1.45;;
15482;SDS011;7843;50.330;7.312;2023-02-26T01:59:40;5.27;;;1.53;;
15482;SDS011;7843;50.330;7.312;2023-02-26T02:02:09;3.50;;;1.60;;
15482;SDS011;7843;50.330;7.312;2023-02-26T02:04:38;4.72;;;1.55;;
15482;SDS011;7843;50.330;7.312;2023-02-26T02:07:07;3.42;;;1.60;;
15482;SDS011;7843;50.330;7.312;2023-02-26T02:09:34;7.90;;;1.90;;
15482;SDS011;7843;50.330;7.312;2023-02-26T02:20:23;7.43;;;2.80;;
15482;SDS011;7843;50.330;7.312;2023-02-26T02:23:10;2.17;;;1.50;;
15482;SDS011;7843;50.330;7.312;2023-02-26T02:28:26;4.03;;;1.45;;
15482;SDS011;7843;50.330;7.312;2023-02-26T02:33:43;4.28;;;1.58;;
15482;SDS011;7843;50.330;7.312;2023-02-26T02:36:22;2.70;;;1.75;;
15482;SDS011;7843;50.330;7.312;2023-02-26T02:39:04;2.92;;;1.55;;
15482;SDS011;7843;50.330;7.312;2023-02-26T02:41:45;4.57;;;1.33;;
15482;SDS011;7843;50.330;7.312;2023-02-26T02:44:22;2.63;;;1.20;;
15482;SDS011;7843;50.330;7.312;2023-02-26T02:46:52;2.57;;;1.63;;
15482;SDS011;7843;50.330;7.312;2023-02-26T02:49:21;4.13;;;1.73;;
15482;SDS011;7843;50.330;7.312;2023-02-26T02:51:50;4.03;;;1.30;;
15482;SDS011;7843;50.330;7.312;2023-02-26T02:54:41;3.45;;;1.45;;
15482;SDS011;7843;50.330;7.312;2023-02-26T02:57:14;4.13;;;1.80;;
15482;SDS011;7843;50.330;7.312;2023-02-26T02:59:49;5.20;;;2.53;;
15482;SDS011;7843;50.330;7.312;2023-02-26T03:05:26;4.80;;;1.50;;
15482;SDS011;7843;50.330;7.312;2023-02-26T03:07:55;3.72;;;1.80;;
15482;SDS011;7843;50.330;7.312;2023-02-26T03:10:25;3.65;;;1.40;;
15482;SDS011;7843;50.330;7.312;2023-02-26T03:12:52;3.80;;;1.90;;
15482;SDS011;7843;50.330;7.312;2023-02-26T03:15:22;3.05;;;1.73;;
15482;SDS011;7843;50.330;7.312;2023-02-26T03:21:06;2.90;;;1.67;;
15482;SDS011;7843;50.330;7.312;2023-02-26T03:23:35;4.67;;;1.43;;
15482;SDS011;7843;50.330;7.312;2023-02-26T03:26:13;2.65;;;1.50;;
15482;SDS011;7843;50.330;7.312;2023-02-26T03:28:48;3.92;;;1.48;;
15482;SDS011;7843;50.330;7.312;2023-02-26T03:31:37;4.30;;;1.80;;
15482;SDS011;7843;50.330;7.312;2023-02-26T03:34:18;6.40;;;1.70;;
15482;SDS011;7843;50.330;7.312;2023-02-26T03:39:34;4.03;;;1.77;;
15482;SDS011;7843;50.330;7.312;2023-02-26T03:42:22;5.25;;;1.88;;
15482;SDS011;7843;50.330;7.312;2023-02-26T03:45:08;2.67;;;1.52;;
15482;SDS011;7843;50.330;7.312;2023-02-26T03:47:38;5.22;;;1.67;;
15482;SDS011;7843;50.330;7.312;2023-02-26T03:50:11;3.70;;;1.80;;
15482;SDS011;7843;50.330;7.312;2023-02-26T03:52:46;3.80;;;1.83;;
15482;SDS011;7843;50.330;7.312;2023-02-26T03:57:41;3.42;;;1.95;;
15482;SDS011;7843;50.330;7.312;2023-02-26T04:00:09;3.53;;;1.95;;
15482;SDS011;7843;50.330;7.312;2023-02-26T04:02:47;3.95;;;1.50;;
15482;SDS011;7843;50.330;7.312;2023-02-26T04:05:31;2.63;;;1.63;;
15482;SDS011;7843;50.330;7.312;2023-02-26T04:08:00;2.33;;;1.52;;
15482;SDS011;7843;50.330;7.312;2023-02-26T04:10:32;3.72;;;1.95;;
15482;SDS011;7843;50.330;7.312;2023-02-26T04:13:07;3.58;;;1.83;;
15482;SDS011;7843;50.330;7.312;2023-02-26T04:15:34;3.42;;;1.63;;
15482;SDS011;7843;50.330;7.312;2023-02-26T04:18:01;3.78;;;1.73;;
15482;SDS011;7843;50.330;7.312;2023-02-26T04:20:27;3.45;;;1.85;;
15482;SDS011;7843;50.330;7.312;2023-02-26T04:22:55;4.20;;;1.60;;
15482;SDS011;7843;50.330;7.312;2023-02-26T04:25:21;3.33;;;2.00;;
15482;SDS011;7843;50.330;7.312;2023-02-26T04:27:49;2.05;;;1.58;;
15482;SDS011;7843;50.330;7.312;2023-02-26T04:30:15;2.90;;;1.55;;
15482;SDS011;7843;50.330;7.312;2023-02-26T04:32:42;2.78;;;1.70;;
15482;SDS011;7843;50.330;7.312;2023-02-26T04:35:09;4.50;;;1.77;;
15482;SDS011;7843;50.330;7.312;2023-02-26T04:37:36;2.78;;;1.88;;
15482;SDS011;7843;50.330;7.312;2023-02-26T04:40:02;2.70;;;1.50;;
15482;SDS011;7843;50.330;7.312;2023-02-26T04:42:30;3.80;;;1.83;;
15482;SDS011;7843;50.330;7.312;2023-02-26T04:44:56;4.28;;;1.90;;
15482;SDS011;7843;50.330;7.312;2023-02-26T04:47:23;3.65;;;1.73;;
15482;SDS011;7843;50.330;7.312;2023-02-26T04:49:49;3.00;;;1.83;;
15482;SDS011;7843;50.330;7.312;2023-02-26T04:52:16;3.08;;;1.60;;
15482;SDS011;7843;50.330;7.312;2023-02-26T04:54:43;2.42;;;1.67;;
15482;SDS011;7843;50.330;7.312;2023-02-26T04:57:09;2.67;;;1.85;;
15482;SDS011;7843;50.330;7.312;2023-02-26T04:59:36;2.90;;;1.98;;
15482;SDS011;7843;50.330;7.312;2023-02-26T05:02:04;3.63;;;1.85;;
15482;SDS011;7843;50.330;7.312;2023-02-26T05:04:31;3.75;;;1.60;;
15482;SDS011;7843;50.330;7.312;2023-02-26T05:06:57;2.90;;;2.05;;
15482;SDS011;7843;50.330;7.312;2023-02-26T05:09:24;2.08;;;1.50;;
15482;SDS011;7843;50.330;7.312;2023-02-26T05:11:51;5.95;;;1.75;;
15482;SDS011;7843;50.330;7.312;2023-02-26T05:14:17;7.22;;;2.05;;
15482;SDS011;7843;50.330;7.312;2023-02-26T05:16:44;5.30;;;2.13;;
15482;SDS011;7843;50.330;7.312;2023-02-26T05:19:11;3.60;;;1.67;;
15482;SDS011;7843;50.330;7.312;2023-02-26T05:21:37;5.78;;;1.95;;
15482;SDS011;7843;50.330;7.312;2023-02-26T05:24:04;3.40;;;1.60;;
15482;SDS011;7843;50.330;7.312;2023-02-26T05:26:31;1.77;;;1.63;;
15482;SDS011;7843;50.330;7.312;2023-02-26T05:28:58;2.92;;;1.80;;
15482;SDS011;7843;50.330;7.312;2023-02-26T05:31:25;4.03;;;1.45;;
15482;SDS011;7843;50.330;7.312;2023-02-26T05:33:52;2.60;;;1.58;;
15482;SDS011;7843;50.330;7.312;2023-02-26T05:36:18;4.43;;;1.98;;
15482;SDS011;7843;50.330;7.312;2023-02-26T05:38:45;3.13;;;1.58;;
15482;SDS011;7843;50.330;7.312;2023-02-26T05:41:12;2.42;;;1.60;;
15482;SDS011;7843;50.330;7.312;2023-02-26T05:43:38;3.33;;;1.90;;
15482;SDS011;7843;50.330;7.312;2023-02-26T05:46:06;3.28;;;2.10;;
15482;SDS011;7843;50.330;7.312;2023-02-26T05:48:33;5.22;;;2.03;;
15482;SDS011;7843;50.330;7.312;2023-02-26T05:51:00;3.13;;;1.50;;
15482;SDS011;7843;50.330;7.312;2023-02-26T05:53:27;2.45;;;1.42;;
15482;SDS011;7843;50.330;7.312;2023-02-26T05:55:54;1.70;;;1.40;;
15482;SDS011;7843;50.330;7.312;2023-02-26T05:58:21;2.95;;;1.98;;
15482;SDS011;7843;50.330;7.312;2023-02-26T06:00:48;5.07;;;1.90;;
15482;SDS011;7843;50.330;7.312;2023-02-26T06:03:14;2.53;;;1.67;;
15482;SDS011;7843;50.330;7.312;2023-02-26T06:05:41;4.17;;;2.10;;
15482;SDS011;7843;50.330;7.312;2023-02-26T06:08:08;2.88;;;1.92;;
15482;SDS011;7843;50.330;7.312;2023-02-26T06:10:37;5.18;;;1.88;;
15482;SDS011;7843;50.330;7.312;2023-02-26T06:13:03;4.70;;;1.80;;
15482;SDS011;7843;50.330;7.312;2023-02-26T06:15:30;4.60;;;2.00;;
15482;SDS011;7843;50.330;7.312;2023-02-26T06:17:57;3.40;;;2.00;;
15482;SDS011;7843;50.330;7.312;2023-02-26T06:20:23;4.47;;;2.05;;
15482;SDS011;7843;50.330;7.312;2023-02-26T06:22:50;3.13;;;2.17;;
15482;SDS011;7843;50.330;7.312;2023-02-26T06:25:17;3.38;;;2.00;;
15482;SDS011;7843;50.330;7.312;2023-02-26T06:27:43;6.43;;;2.10;;
15482;SDS011;7843;50.330;7.312;2023-02-26T06:30:10;4.50;;;1.88;;
15482;SDS011;7843;50.330;7.312;2023-02-26T06:32:37;6.03;;;1.92;;
15482;SDS011;7843;50.330;7.312;2023-02-26T06:35:04;3.42;;;1.90;;
15482;SDS011;7843;50.330;7.312;2023-02-26T06:37:31;3.30;;;2.03;;
15482;SDS011;7843;50.330;7.312;2023-02-26T06:39:58;3.57;;;1.77;;
15482;SDS011;7843;50.330;7.312;2023-02-26T06:42:25;2.43;;;1.93;;
15482;SDS011;7843;50.330;7.312;2023-02-26T06:44:51;2.00;;;1.70;;
15482;SDS011;7843;50.330;7.312;2023-02-26T06:47:18;3.25;;;1.80;;
15482;SDS011;7843;50.330;7.312;2023-02-26T06:49:45;4.55;;;1.95;;
15482;SDS011;7843;50.330;7.312;2023-02-26T06:52:11;2.20;;;1.70;;
15482;SDS011;7843;50.330;7.312;2023-02-26T06:54:38;3.30;;;1.70;;
15482;SDS011;7843;50.330;7.312;2023-02-26T06:57:05;4.55;;;1.92;;
15482;SDS011;7843;50.330;7.312;2023-02-26T06:59:31;3.03;;;1.60;;
15482;SDS011;7843;50.330;7.312;2023-02-26T07:01:58;5.70;;;1.83;;
15482;SDS011;7843;50.330;7.312;2023-02-26T07:04:25;5.10;;;2.20;;
15482;SDS011;7843;50.330;7.312;2023-02-26T07:06:51;4.57;;;2.45;;
15482;SDS011;7843;50.330;7.312;2023-02-26T07:09:18;5.03;;;2.33;;
15482;SDS011;7843;50.330;7.312;2023-02-26T07:11:45;5.40;;;2.20;;
15482;SDS011;7843;50.330;7.312;2023-02-26T07:14:12;3.37;;;1.80;;
15482;SDS011;7843;50.330;7.312;2023-02-26T07:16:38;2.40;;;1.63;;
15482;SDS011;7843;50.330;7.312;2023-02-26T07:19:05;2.50;;;1.85;;
15482;SDS011;7843;50.330;7.312;2023-02-26T07:21:32;4.55;;;1.90;;
15482;SDS011;7843;50.330;7.312;2023-02-26T07:23:58;2.08;;;1.42;;
15482;SDS011;7843;50.330;7.312;2023-02-26T07:26:25;2.13;;;1.65;;
15482;SDS011;7843;50.330;7.312;2023-02-26T07:28:52;3.22;;;2.00;;
15482;SDS011;7843;50.330;7.312;2023-02-26T07:31:19;3.15;;;1.90;;
15482;SDS011;7843;50.330;7.312;2023-02-26T07:33:46;5.10;;;1.92;;
15482;SDS011;7843;50.330;7.312;2023-02-26T07:36:12;2.20;;;1.77;;
15482;SDS011;7843;50.330;7.312;2023-02-26T07:38:39;3.60;;;1.70;;
15482;SDS011;7843;50.330;7.312;2023-02-26T07:41:05;4.43;;;1.60;;
15482;SDS011;7843;50.330;7.312;2023-02-26T07:43:32;3.30;;;1.55;;
15482;SDS011;7843;50.330;7.312;2023-02-26T07:45:59;2.63;;;1.43;;
15482;SDS011;7843;50.330;7.312;2023-02-26T07:48:25;7.63;;;1.80;;
15482;SDS011;7843;50.330;7.312;2023-02-26T07:50:53;2.50;;;1.50;;
15482;SDS011;7843;50.330;7.312;2023-02-26T07:53:20;4.32;;;2.25;;
15482;SDS011;7843;50.330;7.312;2023-02-26T07:55:47;8.07;;;1.67;;
15482;SDS011;7843;50.330;7.312;2023-02-26T07:58:14;4.07;;;2.20;;
15482;SDS011;7843;50.330;7.312;2023-02-26T08:00:40;2.67;;;1.58;;
15482;SDS011;7843;50.330;7.312;2023-02-26T08:03:07;2.95;;;1.60;;
15482;SDS011;7843;50.330;7.312;2023-02-26T08:05:34;1.75;;;1.30;;
15482;SDS011;7843;50.330;7.312;2023-02-26T08:08:01;1.65;;;1.33;;
15482;SDS011;7843;50.330;7.312;2023-02-26T08:10:28;1.75;;;1.65;;
15482;SDS011;7843;50.330;7.312;2023-02-26T08:12:58;2.40;;;1.40;;
15482;SDS011;7843;50.330;7.312;2023-02-26T08:15:25;2.65;;;1.40;;
15482;SDS011;7843;50.330;7.312;2023-02-26T08:17:52;2.85;;;1.67;;
15482;SDS011;7843;50.330;7.312;2023-02-26T08:20:19;2.50;;;1.80;;
15482;SDS011;7843;50.330;7.312;2023-02-26T08:22:46;3.40;;;1.42;;
15482;SDS011;7843;50.330;7.312;2023-02-26T08:25:12;3.10;;;1.55;;
15482;SDS011;7843;50.330;7.312;2023-02-26T08:27:39;2.63;;;1.40;;
15482;SDS011;7843;50.330;7.312;2023-02-26T08:30:06;1.63;;;1.20;;
15482;SDS011;7843;50.330;7.312;2023-02-26T08:32:33;5.70;;;1.50;;
15482;SDS011;7843;50.330;7.312;2023-02-26T08:35:00;3.95;;;1.70;;
15482;SDS011;7843;50.330;7.312;2023-02-26T08:37:27;5.43;;;1.60;;
15482;SDS011;7843;50.330;7.312;2023-02-26T08:39:53;3.72;;;1.55;;
15482;SDS011;7843;50.330;7.312;2023-02-26T08:42:20;2.17;;;1.30;;
15482;SDS011;7843;50.330;7.312;2023-02-26T08:44:46;2.35;;;1.15;;
15482;SDS011;7843;50.330;7.312;2023-02-26T08:47:13;2.78;;;1.48;;
15482;SDS011;7843;50.330;7.312;2023-02-26T08:49:49;5.72;;;1.50;;
15482;SDS011;7843;50.330;7.312;2023-02-26T08:52:16;4.57;;;1.70;;
15482;SDS011;7843;50.330;7.312;2023-02-26T08:54:43;1.95;;;1.10;;
15482;SDS011;7843;50.330;7.312;2023-02-26T08:57:09;2.20;;;1.58;;
15482;SDS011;7843;50.330;7.312;2023-02-26T08:59:36;1.38;;;1.27;;
15482;SDS011;7843;50.330;7.312;2023-02-26T09:02:03;3.17;;;1.83;;
15482;SDS011;7843;50.330;7.312;2023-02-26T09:04:30;2.05;;;1.27;;
15482;SDS011;7843;50.330;7.312;2023-02-26T09:06:57;2.92;;;1.30;;
15482;SDS011;7843;50.330;7.312;2023-02-26T09:09:23;2.03;;;1.30;;
15482;SDS011;7843;50.330;7.312;2023-02-26T09:11:50;1.67;;;1.30;;
15482;SDS011;7843;50.330;7.312;2023-02-26T09:14:17;2.10;;;1.50;;
15482;SDS011;7843;50.330;7.312;2023-02-26T09:16:44;0.90;;;0.80;;
15482;SDS011;7843;50.330;7.312;2023-02-26T09:19:10;3.10;;;1.35;;
15482;SDS011;7843;50.330;7.312;2023-02-26T09:21:37;3.03;;;1.38;;
15482;SDS011;7843;50.330;7.312;2023-02-26T09:24:04;1.48;;;1.27;;
15482;SDS011;7843;50.330;7.312;2023-02-26T09:26:31;1.52;;;1.10;;
15482;SDS011;7843;50.330;7.312;2023-02-26T09:28:58;2.38;;;1.50;;
15482;SDS011;7843;50.330;7.312;2023-02-26T09:31:24;1.77;;;1.15;;
15482;SDS011;7843;50.330;7.312;2023-02-26T09:33:52;2.83;;;1.10;;
15482;SDS011;7843;50.330;7.312;2023-02-26T09:36:19;2.25;;;1.50;;
15482;SDS011;7843;50.330;7.312;2023-02-26T09:38:46;4.15;;;1.48;;
15482;SDS011;7843;50.330;7.312;2023-02-26T09:41:18;1.20;;;1.00;;
15482;SDS011;7843;50.330;7.312;2023-02-26T09:52:17;3.65;;;1.35;;
15482;SDS011;7843;50.330;7.312;2023-02-26T09:54:53;2.20;;;1.25;;
15482;SDS011;7843;50.330;7.312;2023-02-26T09:57:30;2.42;;;1.35;;
15482;SDS011;7843;50.330;7.312;2023-02-26T10:00:01;1.67;;;1.10;;
15482;SDS011;7843;50.330;7.312;2023-02-26T10:02:37;1.43;;;1.20;;
15482;SDS011;7843;50.330;7.312;2023-02-26T10:08:33;2.75;;;2.03;;
15482;SDS011;7843;50.330;7.312;2023-02-26T10:11:13;7.68;;;4.00;;
15482;SDS011;7843;50.330;7.312;2023-02-26T10:13:57;2.47;;;1.33;;
15482;SDS011;7843;50.330;7.312;2023-02-26T10:16:34;2.50;;;1.20;;
15482;SDS011;7843;50.330;7.312;2023-02-26T10:19:06;1.67;;;1.13;;
15482;SDS011;7843;50.330;7.312;2023-02-26T10:27:08;1.85;;;1.17;;
15482;SDS011;7843;50.330;7.312;2023-02-26T10:29:52;1.77;;;1.13;;
15482;SDS011;7843;50.330;7.312;2023-02-26T10:35:04;3.28;;;1.15;;
15482;SDS011;7843;50.330;7.312;2023-02-26T10:37:50;2.58;;;1.60;;
15482;SDS011;7843;50.330;7.312;2023-02-26T10:43:38;1.85;;;0.88;;
15482;SDS011;7843;50.330;7.312;2023-02-26T10:49:24;2.25;;;1.05;;
15482;SDS011;7843;50.330;7.312;2023-02-26T10:52:00;2.28;;;0.75;;
15482;SDS011;7843;50.330;7.312;2023-02-26T10:54:54;1.85;;;0.90;;
15482;SDS011;7843;50.330;7.312;2023-02-26T11:00:40;3.83;;;1.77;;
15482;SDS011;7843;50.330;7.312;2023-02-26T11:03:12;1.15;;;0.82;;
15482;SDS011;7843;50.330;7.312;2023-02-26T11:05:43;0.90;;;0.80;;
15482;SDS011;7843;50.330;7.312;2023-02-26T11:08:12;1.10;;;0.90;;
15482;SDS011;7843;50.330;7.312;2023-02-26T11:10:53;1.27;;;0.68;;
15482;SDS011;7843;50.330;7.312;2023-02-26T11:13:22;1.33;;;0.65;;
15482;SDS011;7843;50.330;7.312;2023-02-26T11:15:51;0.97;;;0.70;;
15482;SDS011;7843;50.330;7.312;2023-02-26T11:18:24;0.70;;;0.63;;
15482;SDS011;7843;50.330;7.312;2023-02-26T11:21:05;0.60;;;0.55;;
15482;SDS011;7843;50.330;7.312;2023-02-26T11:23:39;1.23;;;0.68;;
15482;SDS011;7843;50.330;7.312;2023-02-26T11:26:13;1.52;;;0.50;;
15482;SDS011;7843;50.330;7.312;2023-02-26T11:28:43;0.65;;;0.50;;
15482;SDS011;7843;50.330;7.312;2023-02-26T11:31:17;0.80;;;0.70;;
15482;SDS011;7843;50.330;7.312;2023-02-26T11:33:49;0.57;;;0.57;;
15482;SDS011;7843;50.330;7.312;2023-02-26T11:36:21;1.02;;;0.73;;
15482;SDS011;7843;50.330;7.312;2023-02-26T11:38:54;1.30;;;0.52;;
15482;SDS011;7843;50.330;7.312;2023-02-26T11:41:23;2.00;;;0.88;;
15482;SDS011;7843;50.330;7.312;2023-02-26T11:44:04;0.70;;;0.43;;
15482;SDS011;7843;50.330;7.312;2023-02-26T11:46:37;2.50;;;0.57;;
15482;SDS011;7843;50.330;7.312;2023-02-26T11:49:13;1.10;;;0.63;;
15482;SDS011;7843;50.330;7.312;2023-02-26T11:51:46;0.70;;;0.40;;
15482;SDS011;7843;50.330;7.312;2023-02-26T11:54:27;0.68;;;0.47;;
15482;SDS011;7843;50.330;7.312;2023-02-26T11:57:01;1.58;;;0.75;;
15482;SDS011;7843;50.330;7.312;2023-02-26T11:59:31;1.70;;;0.90;;
15482;SDS011;7843;50.330;7.312;2023-02-26T12:02:19;1.30;;;0.50;;
15482;SDS011;7843;50.330;7.312;2023-02-26T12:04:49;2.97;;;1.05;;
15482;SDS011;7843;50.330;7.312;2023-02-26T12:07:18;0.63;;;0.52;;
15482;SDS011;7843;50.330;7.312;2023-02-26T12:09:45;2.40;;;0.63;;
15482;SDS011;7843;50.330;7.312;2023-02-26T12:20:23;0.57;;;0.50;;
15482;SDS011;7843;50.330;7.312;2023-02-26T12:23:03;1.60;;;0.93;;
15482;SDS011;7843;50.330;7.312;2023-02-26T12:35:01;0.70;;;0.68;;
15482;SDS011;7843;50.330;7.312;2023-02-26T12:37:50;1.60;;;0.80;;
15482;SDS011;7843;50.330;7.312;2023-02-26T12:43:48;0.70;;;0.70;;
15482;SDS011;7843;50.330;7.312;2023-02-26T12:49:07;0.95;;;0.50;;
15482;SDS011;7843;50.330;7.312;2023-02-26T12:52:03;1.08;;;0.70;;
15482;SDS011;7843;50.330;7.312;2023-02-26T13:03:46;2.38;;;1.20;;
15482;SDS011;7843;50.330;7.312;2023-02-26T13:18:02;2.07;;;0.90;;
15482;SDS011;7843;50.330;7.312;2023-02-26T13:20:58;2.08;;;0.70;;
15482;SDS011;7843;50.330;7.312;2023-02-26T13:23:35;0.70;;;0.60;;
15482;SDS011;7843;50.330;7.312;2023-02-26T13:26:08;0.70;;;0.60;;
15482;SDS011;7843;50.330;7.312;2023-02-26T13:28:42;1.50;;;0.70;;
15482;SDS011;7843;50.330;7.312;2023-02-26T13:31:35;0.65;;;0.65;;
15482;SDS011;7843;50.330;7.312;2023-02-26T13:34:12;0.88;;;0.43;;
15482;SDS011;7843;50.330;7.312;2023-02-26T13:36:43;1.05;;;0.50;;
15482;SDS011;7843;50.330;7.312;2023-02-26T13:39:55;1.35;;;0.75;;
15482;SDS011;7843;50.330;7.312;2023-02-26T13:42:26;1.13;;;0.55;;
15482;SDS011;7843;50.330;7.312;2023-02-26T13:48:10;0.90;;;0.50;;
15482;SDS011;7843;50.330;7.312;2023-02-26T13:50:51;0.70;;;0.50;;
15482;SDS011;7843;50.330;7.312;2023-02-26T13:53:34;0.80;;;0.47;;
15482;SDS011;7843;50.330;7.312;2023-02-26T13:56:15;0.90;;;0.40;;
15482;SDS011;7843;50.330;7.312;2023-02-26T13:58:52;1.00;;;0.50;;
15482;SDS011;7843;50.330;7.312;2023-02-26T14:01:32;1.50;;;0.50;;
15482;SDS011;7843;50.330;7.312;2023-02-26T14:04:21;1.30;;;0.30;;
15482;SDS011;7843;50.330;7.312;2023-02-26T14:07:10;1.27;;;0.60;;
15482;SDS011;7843;50.330;7.312;2023-02-26T14:09:46;0.98;;;0.50;;
15482;SDS011;7843;50.330;7.312;2023-02-26T14:12:36;0.50;;;0.30;;
15482;SDS011;7843;50.330;7.312;2023-02-26T14:17:39;1.08;;;0.60;;
15482;SDS011;7843;50.330;7.312;2023-02-26T14:22:45;0.70;;;0.40;;
15482;SDS011;7843;50.330;7.312;2023-02-26T14:25:25;1.25;;;0.60;;
15482;SDS011;7843;50.330;7.312;2023-02-26T14:28:18;0.43;;;0.43;;
15482;SDS011;7843;50.330;7.312;2023-02-26T14:30:49;4.90;;;0.73;;
15482;SDS011;7843;50.330;7.312;2023-02-26T14:33:25;0.60;;;0.40;;
15482;SDS011;7843;50.330;7.312;2023-02-26T14:35:54;0.40;;;0.40;;
15482;SDS011;7843;50.330;7.312;2023-02-26T14:38:24;1.13;;;0.60;;
15482;SDS011;7843;50.330;7.312;2023-02-26T14:41:13;0.97;;;0.40;;
15482;SDS011;7843;50.330;7.312;2023-02-26T14:44:06;0.47;;;0.40;;
15482;SDS011;7843;50.330;7.312;2023-02-26T14:46:41;1.20;;;0.50;;
15482;SDS011;7843;50.330;7.312;2023-02-26T14:52:05;0.98;;;0.45;;
15482;SDS011;7843;50.330;7.312;2023-02-26T14:54:50;0.70;;;0.43;;
15482;SDS011;7843;50.330;7.312;2023-02-26T15:22:23;0.82;;;0.60;;
15482;SDS011;7843;50.330;7.312;2023-02-26T15:24:58;1.52;;;0.60;;
15482;SDS011;7843;50.330;7.312;2023-02-26T15:27:26;0.95;;;0.60;;
15482;SDS011;7843;50.330;7.312;2023-02-26T15:29:56;1.55;;;0.88;;
15482;SDS011;7843;50.330;7.312;2023-02-26T15:32:25;0.82;;;0.70;;
15482;SDS011;7843;50.330;7.312;2023-02-26T15:34:58;1.50;;;0.90;;
15482;SDS011;7843;50.330;7.312;2023-02-26T15:37:42;3.90;;;1.48;;
15482;SDS011;7843;50.330;7.312;2023-02-26T15:40:13;4.03;;;1.83;;
15482;SDS011;7843;50.330;7.312;2023-02-26T15:42:40;3.92;;;1.40;;
15482;SDS011;7843;50.330;7.312;2023-02-26T15:45:12;1.63;;;0.90;;
15482;SDS011;7843;50.330;7.312;2023-02-26T15:47:46;5.57;;;1.52;;
15482;SDS011;7843;50.330;7.312;2023-02-26T15:50:17;1.90;;;0.98;;
15482;SDS011;7843;50.330;7.312;2023-02-26T15:52:44;0.60;;;0.50;;
15482;SDS011;7843;50.330;7.312;2023-02-26T15:55:18;0.98;;;0.50;;
15482;SDS011;7843;50.330;7.312;2023-02-26T15:57:45;0.60;;;0.50;;
15482;SDS011;7843;50.330;7.312;2023-02-26T16:00:16;2.40;;;0.40;;
15482;SDS011;7843;50.330;7.312;2023-02-26T16:02:54;0.50;;;0.50;;
15482;SDS011;7843;50.330;7.312;2023-02-26T16:05:24;0.40;;;0.30;;
15482;SDS011;7843;50.330;7.312;2023-02-26T16:07:51;1.02;;;0.43;;
15482;SDS011;7843;50.330;7.312;2023-02-26T16:10:34;0.90;;;0.65;;
15482;SDS011;7843;50.330;7.312;2023-02-26T16:13:06;0.98;;;0.60;;
15482;SDS011;7843;50.330;7.312;2023-02-26T16:15:40;1.20;;;0.50;;
15482;SDS011;7843;50.330;7.312;2023-02-26T16:18:11;1.00;;;0.52;;
15482;SDS011;7843;50.330;7.312;2023-02-26T16:20:42;5.53;;;3.50;;
15482;SDS011;7843;50.330;7.312;2023-02-26T16:23:13;5.97;;;3.33;;
15482;SDS011;7843;50.330;7.312;2023-02-26T16:25:50;10.38;;;5.32;;
15482;SDS011;7843;50.330;7.312;2023-02-26T16:28:21;2.72;;;1.52;;
15482;SDS011;7843;50.330;7.312;2023-02-26T16:30:53;1.63;;;0.60;;
15482;SDS011;7843;50.330;7.312;2023-02-26T16:33:23;1.77;;;0.98;;
15482;SDS011;7843;50.330;7.312;2023-02-26T16:35:54;2.03;;;1.17;;
15482;SDS011;7843;50.330;7.312;2023-02-26T16:38:43;2.53;;;1.23;;
15482;SDS011;7843;50.330;7.312;2023-02-26T16:41:15;1.90;;;0.93;;
15482;SDS011;7843;50.330;7.312;2023-02-26T16:43:52;2.30;;;1.40;;
15482;SDS011;7843;50.330;7.312;2023-02-26T16:49:08;1.75;;;1.13;;
15482;SDS011;7843;50.330;7.312;2023-02-26T16:51:37;3.42;;;1.67;;
15482;SDS011;7843;50.330;7.312;2023-02-26T16:54:19;3.27;;;1.20;;
15482;SDS011;7843;50.330;7.312;2023-02-26T16:56:51;2.13;;;1.15;;
15482;SDS011;7843;50.330;7.312;2023-02-26T16:59:29;1.90;;;0.85;;
15482;SDS011;7843;50.330;7.312;2023-02-26T17:02:12;2.50;;;0.80;;
15482;SDS011;7843;50.330;7.312;2023-02-26T17:04:49;1.00;;;0.77;;
15482;SDS011;7843;50.330;7.312;2023-02-26T17:07:28;2.70;;;1.25;;
15482;SDS011;7843;50.330;7.312;2023-02-26T17:10:07;1.52;;;1.10;;
15482;SDS011;7843;50.330;7.312;2023-02-26T17:12:48;3.03;;;1.52;;
15482;SDS011;7843;50.330;7.312;2023-02-26T17:15:18;1.52;;;1.00;;
15482;SDS011;7843;50.330;7.312;2023-02-26T17:17:51;1.67;;;1.17;;
15482;SDS011;7843;50.330;7.312;2023-02-26T17:20:22;1.05;;;0.90;;
15482;SDS011;7843;50.330;7.312;2023-02-26T17:22:49;2.67;;;0.90;;
15482;SDS011;7843;50.330;7.312;2023-02-26T17:25:17;2.97;;;1.55;;
15482;SDS011;7843;50.330;7.312;2023-02-26T17:27:46;3.28;;;1.40;;
15482;SDS011;7843;50.330;7.312;2023-02-26T17:30:15;1.38;;;0.93;;
15482;SDS011;7843;50.330;7.312;2023-02-26T17:32:45;1.15;;;1.00;;
15482;SDS011;7843;50.330;7.312;2023-02-26T17:35:16;2.60;;;1.90;;
15482;SDS011;7843;50.330;7.312;2023-02-26T17:37:43;3.42;;;2.03;;
15482;SDS011;7843;50.330;7.312;2023-02-26T17:40:22;7.05;;;3.63;;
15482;SDS011;7843;50.330;7.312;2023-02-26T17:42:51;3.80;;;2.88;;
15482;SDS011;7843;50.330;7.312;2023-02-26T17:45:18;3.35;;;2.70;;
15482;SDS011;7843;50.330;7.312;2023-02-26T17:47:45;6.75;;;3.20;;
15482;SDS011;7843;50.330;7.312;2023-02-26T17:50:39;3.65;;;2.63;;
15482;SDS011;7843;50.330;7.312;2023-02-26T17:53:09;4.72;;;2.83;;
15482;SDS011;7843;50.330;7.312;2023-02-26T17:55:36;5.93;;;3.50;;
15482;SDS011;7843;50.330;7.312;2023-02-26T17:58:05;3.55;;;1.63;;
15482;SDS011;7843;50.330;7.312;2023-02-26T18:00:33;3.58;;;1.50;;
15482;SDS011;7843;50.330;7.312;2023-02-26T18:03:04;4.20;;;1.55;;
15482;SDS011;7843;50.330;7.312;2023-02-26T18:05:31;2.55;;;1.70;;
15482;SDS011;7843;50.330;7.312;2023-02-26T18:08:04;4.45;;;1.40;;